sensor_id;sensor_type;location;lat;lon;timestamp;P1;durP1;ratioP1;P2;durP2;ratioP2
33184;SDS011;19550;42.872;25.494;2022-08-01T00:00:30;10.52;;;9.43;;
33184;SDS011;19550;42.872;25.494;2022-08-01T00:02:59;14.02;;;9.20;;
33184;SDS011;19550;42.872;25.494;2022-08-01T00:05:26;10.63;;;9.00;;
33184;SDS011;19550;42.872;25.494;2022-08-01T00:07:53;11.65;;;8.43;;
33184;SDS011;19550;42.872;25.494;2022-08-01T00:10:20;10.18;;;8.75;;
33184;SDS011;19550;42.872;25.494;2022-08-01T00:12:47;8.73;;;7.70;;
33184;SDS011;19550;42.872;25.494;2022-08-01T00:15:15;12.27;;;8.52;;
33184;SDS011;19550;42.872;25.494;2022-08-01T00:17:43;9.25;;;8.35;;
33184;SDS011;19550;42.872;25.494;2022-08-01T00:20:12;10.45;;;7.80;;
33184;SDS011;19550;42.872;25.494;2022-08-01T00:25:07;9.43;;;8.50;;
33184;SDS011;19550;42.872;25.494;2022-08-01T00:27:35;9.88;;;8.32;;
33184;SDS011;19550;42.872;25.494;2022-08-01T00:30:02;11.68;;;8.35;;
33184;SDS011;19550;42.872;25.494;2022-08-01T00:32:30;10.27;;;8.77;;
33184;SDS011;19550;42.872;25.494;2022-08-01T00:34:57;9.48;;;8.10;;
33184;SDS011;19550;42.872;25.494;2022-08-01T00:37:25;9.10;;;8.15;;
33184;SDS011;19550;42.872;25.494;2022-08-01T00:39:52;9.00;;;7.97;;
33184;SDS011;19550;42.872;25.494;2022-08-01T00:42:19;12.60;;;8.18;;
33184;SDS011;19550;42.872;25.494;2022-08-01T00:44:47;10.13;;;8.80;;
33184;SDS011;19550;42.872;25.494;2022-08-01T00:47:14;12.85;;;8.27;;
33184;SDS011;19550;42.872;25.494;2022-08-01T00:49:41;10.48;;;8.85;;
33184;SDS011;19550;42.872;25.494;2022-08-01T00:52:08;9.48;;;7.65;;
33184;SDS011;19550;42.872;25.494;2022-08-01T00:54:37;13.43;;;8.07;;
33184;SDS011;19550;42.872;25.494;2022-08-01T00:57:05;10.13;;;7.75;;
33184;SDS011;19550;42.872;25.494;2022-08-01T00:59:32;11.07;;;7.82;;
33184;SDS011;19550;42.872;25.494;2022-08-01T01:02:00;10.60;;;8.18;;
33184;SDS011;19550;42.872;25.494;2022-08-01T01:04:27;11.00;;;7.90;;
33184;SDS011;19550;42.872;25.494;2022-08-01T01:06:56;11.73;;;8.57;;
33184;SDS011;19550;42.872;25.494;2022-08-01T01:09:33;13.23;;;8.80;;
33184;SDS011;19550;42.872;25.494;2022-08-01T01:12:10;12.60;;;9.02;;
33184;SDS011;19550;42.872;25.494;2022-08-01T01:14:42;11.70;;;8.65;;
33184;SDS011;19550;42.872;25.494;2022-08-01T01:17:16;9.30;;;8.27;;
33184;SDS011;19550;42.872;25.494;2022-08-01T01:19:48;9.52;;;8.52;;
33184;SDS011;19550;42.872;25.494;2022-08-01T01:22:27;11.73;;;8.60;;
33184;SDS011;19550;42.872;25.494;2022-08-01T01:25:10;9.77;;;8.25;;
33184;SDS011;19550;42.872;25.494;2022-08-01T01:27:51;11.77;;;7.68;;
33184;SDS011;19550;42.872;25.494;2022-08-01T01:30:26;9.07;;;7.43;;
33184;SDS011;19550;42.872;25.494;2022-08-01T01:32:56;16.17;;;8.63;;
33184;SDS011;19550;42.872;25.494;2022-08-01T01:35:28;9.50;;;8.55;;
33184;SDS011;19550;42.872;25.494;2022-08-01T01:38:00;12.65;;;8.90;;
33184;SDS011;19550;42.872;25.494;2022-08-01T01:40:31;11.95;;;8.43;;
33184;SDS011;19550;42.872;25.494;2022-08-01T01:42:59;9.10;;;8.10;;
33184;SDS011;19550;42.872;25.494;2022-08-01T01:45:28;11.18;;;8.55;;
33184;SDS011;19550;42.872;25.494;2022-08-01T01:47:56;11.38;;;8.02;;
33184;SDS011;19550;42.872;25.494;2022-08-01T01:50:25;12.50;;;8.00;;
33184;SDS011;19550;42.872;25.494;2022-08-01T01:52:53;8.73;;;7.82;;
33184;SDS011;19550;42.872;25.494;2022-08-01T01:55:22;9.38;;;7.25;;
33184;SDS011;19550;42.872;25.494;2022-08-01T01:57:52;11.55;;;7.97;;
33184;SDS011;19550;42.872;25.494;2022-08-01T02:00:22;9.52;;;8.00;;
33184;SDS011;19550;42.872;25.494;2022-08-01T02:02:51;9.07;;;8.13;;
33184;SDS011;19550;42.872;25.494;2022-08-01T02:07:47;11.30;;;7.10;;
33184;SDS011;19550;42.872;25.494;2022-08-01T02:10:17;9.18;;;7.45;;
33184;SDS011;19550;42.872;25.494;2022-08-01T02:12:45;8.85;;;7.45;;
33184;SDS011;19550;42.872;25.494;2022-08-01T02:17:45;7.63;;;6.82;;
33184;SDS011;19550;42.872;25.494;2022-08-01T02:20:16;8.98;;;7.35;;
33184;SDS011;19550;42.872;25.494;2022-08-01T02:22:45;12.65;;;7.32;;
33184;SDS011;19550;42.872;25.494;2022-08-01T02:25:18;10.90;;;6.78;;
33184;SDS011;19550;42.872;25.494;2022-08-01T02:27:51;13.75;;;7.63;;
33184;SDS011;19550;42.872;25.494;2022-08-01T02:30:25;8.13;;;7.15;;
33184;SDS011;19550;42.872;25.494;2022-08-01T02:32:59;10.10;;;6.15;;
33184;SDS011;19550;42.872;25.494;2022-08-01T02:35:33;10.32;;;6.63;;
33184;SDS011;19550;42.872;25.494;2022-08-01T02:38:04;13.18;;;7.07;;
33184;SDS011;19550;42.872;25.494;2022-08-01T02:40:33;7.97;;;6.80;;
33184;SDS011;19550;42.872;25.494;2022-08-01T02:43:02;9.48;;;7.03;;
33184;SDS011;19550;42.872;25.494;2022-08-01T02:45:31;11.52;;;6.90;;
33184;SDS011;19550;42.872;25.494;2022-08-01T02:48:03;7.82;;;6.57;;
33184;SDS011;19550;42.872;25.494;2022-08-01T02:50:37;10.32;;;7.00;;
33184;SDS011;19550;42.872;25.494;2022-08-01T02:53:06;8.10;;;6.88;;
33184;SDS011;19550;42.872;25.494;2022-08-01T02:55:35;9.13;;;6.47;;
33184;SDS011;19550;42.872;25.494;2022-08-01T02:58:04;12.93;;;7.80;;
33184;SDS011;19550;42.872;25.494;2022-08-01T03:00:35;10.85;;;6.57;;
33184;SDS011;19550;42.872;25.494;2022-08-01T03:03:02;7.25;;;6.18;;
33184;SDS011;19550;42.872;25.494;2022-08-01T03:05:31;7.82;;;5.90;;
33184;SDS011;19550;42.872;25.494;2022-08-01T03:08:00;9.05;;;5.80;;
33184;SDS011;19550;42.872;25.494;2022-08-01T03:10:29;10.10;;;6.10;;
33184;SDS011;19550;42.872;25.494;2022-08-01T03:12:57;9.45;;;6.55;;
33184;SDS011;19550;42.872;25.494;2022-08-01T03:15:26;9.27;;;5.43;;
33184;SDS011;19550;42.872;25.494;2022-08-01T03:17:55;8.55;;;5.82;;
33184;SDS011;19550;42.872;25.494;2022-08-01T03:20:25;6.72;;;5.18;;
33184;SDS011;19550;42.872;25.494;2022-08-01T03:22:53;7.30;;;5.53;;
33184;SDS011;19550;42.872;25.494;2022-08-01T03:25:24;8.77;;;5.70;;
33184;SDS011;19550;42.872;25.494;2022-08-01T03:27:54;11.90;;;5.18;;
33184;SDS011;19550;42.872;25.494;2022-08-01T03:30:24;5.60;;;5.00;;
33184;SDS011;19550;42.872;25.494;2022-08-01T03:32:53;10.43;;;5.00;;
33184;SDS011;19550;42.872;25.494;2022-08-01T03:35:20;8.02;;;5.45;;
33184;SDS011;19550;42.872;25.494;2022-08-01T03:37:50;7.82;;;4.78;;
33184;SDS011;19550;42.872;25.494;2022-08-01T03:40:21;7.18;;;4.78;;
33184;SDS011;19550;42.872;25.494;2022-08-01T03:42:56;7.82;;;5.03;;
33184;SDS011;19550;42.872;25.494;2022-08-01T03:45:30;5.80;;;4.88;;
33184;SDS011;19550;42.872;25.494;2022-08-01T03:48:01;9.15;;;5.05;;
33184;SDS011;19550;42.872;25.494;2022-08-01T03:50:31;7.28;;;5.22;;
33184;SDS011;19550;42.872;25.494;2022-08-01T03:53:00;8.80;;;5.32;;
33184;SDS011;19550;42.872;25.494;2022-08-01T03:55:31;8.68;;;5.03;;
33184;SDS011;19550;42.872;25.494;2022-08-01T03:58:02;12.68;;;5.82;;
33184;SDS011;19550;42.872;25.494;2022-08-01T04:00:31;8.45;;;5.85;;
33184;SDS011;19550;42.872;25.494;2022-08-01T04:02:58;13.63;;;5.53;;
33184;SDS011;19550;42.872;25.494;2022-08-01T04:05:26;8.55;;;5.90;;
33184;SDS011;19550;42.872;25.494;2022-08-01T04:07:53;9.82;;;7.07;;
33184;SDS011;19550;42.872;25.494;2022-08-01T04:10:21;9.18;;;6.05;;
33184;SDS011;19550;42.872;25.494;2022-08-01T04:12:51;9.48;;;6.55;;
33184;SDS011;19550;42.872;25.494;2022-08-01T04:15:18;9.85;;;7.25;;
33184;SDS011;19550;42.872;25.494;2022-08-01T04:17:45;13.68;;;6.18;;
33184;SDS011;19550;42.872;25.494;2022-08-01T04:20:12;12.65;;;7.13;;
33184;SDS011;19550;42.872;25.494;2022-08-01T04:22:40;17.13;;;6.28;;
33184;SDS011;19550;42.872;25.494;2022-08-01T04:25:09;11.43;;;6.90;;
33184;SDS011;19550;42.872;25.494;2022-08-01T04:27:42;15.98;;;7.10;;
33184;SDS011;19550;42.872;25.494;2022-08-01T04:30:14;15.15;;;6.82;;
33184;SDS011;19550;42.872;25.494;2022-08-01T04:32:43;17.08;;;8.20;;
33184;SDS011;19550;42.872;25.494;2022-08-01T04:37:42;11.85;;;7.72;;
33184;SDS011;19550;42.872;25.494;2022-08-01T04:40:13;12.60;;;5.65;;
33184;SDS011;19550;42.872;25.494;2022-08-01T04:42:42;9.18;;;5.43;;
33184;SDS011;19550;42.872;25.494;2022-08-01T04:45:09;10.68;;;7.22;;
33184;SDS011;19550;42.872;25.494;2022-08-01T04:47:39;13.15;;;6.13;;
33184;SDS011;19550;42.872;25.494;2022-08-01T04:50:07;12.90;;;6.57;;
33184;SDS011;19550;42.872;25.494;2022-08-01T04:52:36;17.98;;;6.78;;
33184;SDS011;19550;42.872;25.494;2022-08-01T04:55:07;11.32;;;6.13;;
33184;SDS011;19550;42.872;25.494;2022-08-01T04:57:36;10.80;;;5.72;;
33184;SDS011;19550;42.872;25.494;2022-08-01T05:00:05;9.75;;;5.88;;
33184;SDS011;19550;42.872;25.494;2022-08-01T05:02:33;18.02;;;6.15;;
33184;SDS011;19550;42.872;25.494;2022-08-01T05:05:02;11.82;;;6.18;;
33184;SDS011;19550;42.872;25.494;2022-08-01T05:07:31;9.02;;;5.82;;
33184;SDS011;19550;42.872;25.494;2022-08-01T05:09:58;12.38;;;5.88;;
33184;SDS011;19550;42.872;25.494;2022-08-01T05:12:26;12.50;;;6.15;;
33184;SDS011;19550;42.872;25.494;2022-08-01T05:14:53;16.20;;;6.70;;
33184;SDS011;19550;42.872;25.494;2022-08-01T05:17:20;16.73;;;8.30;;
33184;SDS011;19550;42.872;25.494;2022-08-01T05:19:47;12.45;;;6.38;;
33184;SDS011;19550;42.872;25.494;2022-08-01T05:22:16;13.82;;;5.50;;
33184;SDS011;19550;42.872;25.494;2022-08-01T05:24:43;13.55;;;5.25;;
33184;SDS011;19550;42.872;25.494;2022-08-01T05:27:11;13.00;;;5.28;;
33184;SDS011;19550;42.872;25.494;2022-08-01T05:29:38;3.60;;;2.80;;
33184;SDS011;19550;42.872;25.494;2022-08-01T05:32:06;4.40;;;2.42;;
33184;SDS011;19550;42.872;25.494;2022-08-01T05:34:33;4.88;;;2.90;;
33184;SDS011;19550;42.872;25.494;2022-08-01T05:37:00;5.47;;;2.50;;
33184;SDS011;19550;42.872;25.494;2022-08-01T05:39:29;9.10;;;3.45;;
33184;SDS011;19550;42.872;25.494;2022-08-01T05:41:56;3.55;;;2.70;;
33184;SDS011;19550;42.872;25.494;2022-08-01T05:44:23;3.67;;;2.60;;
33184;SDS011;19550;42.872;25.494;2022-08-01T05:46:50;4.30;;;2.47;;
33184;SDS011;19550;42.872;25.494;2022-08-01T05:49:17;4.00;;;2.45;;
33184;SDS011;19550;42.872;25.494;2022-08-01T05:51:44;2.92;;;2.63;;
33184;SDS011;19550;42.872;25.494;2022-08-01T05:54:11;5.20;;;2.65;;
33184;SDS011;19550;42.872;25.494;2022-08-01T05:56:40;5.85;;;2.60;;
33184;SDS011;19550;42.872;25.494;2022-08-01T05:59:07;4.63;;;2.90;;
33184;SDS011;19550;42.872;25.494;2022-08-01T06:01:34;5.88;;;2.35;;
33184;SDS011;19550;42.872;25.494;2022-08-01T06:04:01;3.40;;;2.40;;
33184;SDS011;19550;42.872;25.494;2022-08-01T06:06:28;6.18;;;2.33;;
33184;SDS011;19550;42.872;25.494;2022-08-01T06:08:55;3.10;;;2.55;;
33184;SDS011;19550;42.872;25.494;2022-08-01T06:11:22;3.38;;;2.42;;
33184;SDS011;19550;42.872;25.494;2022-08-01T06:13:51;5.50;;;2.55;;
33184;SDS011;19550;42.872;25.494;2022-08-01T06:16:18;4.45;;;2.13;;
33184;SDS011;19550;42.872;25.494;2022-08-01T06:18:45;4.22;;;2.60;;
33184;SDS011;19550;42.872;25.494;2022-08-01T06:21:12;2.47;;;2.00;;
33184;SDS011;19550;42.872;25.494;2022-08-01T06:23:39;4.55;;;2.03;;
33184;SDS011;19550;42.872;25.494;2022-08-01T06:26:07;4.75;;;2.28;;
33184;SDS011;19550;42.872;25.494;2022-08-01T06:28:35;5.50;;;2.47;;
33184;SDS011;19550;42.872;25.494;2022-08-01T06:31:03;5.57;;;2.28;;
33184;SDS011;19550;42.872;25.494;2022-08-01T06:33:30;3.60;;;2.35;;
33184;SDS011;19550;42.872;25.494;2022-08-01T06:35:57;4.10;;;2.05;;
33184;SDS011;19550;42.872;25.494;2022-08-01T06:38:24;2.97;;;2.10;;
33184;SDS011;19550;42.872;25.494;2022-08-01T06:40:51;4.88;;;2.10;;
33184;SDS011;19550;42.872;25.494;2022-08-01T06:43:18;5.95;;;2.47;;
33184;SDS011;19550;42.872;25.494;2022-08-01T06:45:46;4.35;;;2.60;;
33184;SDS011;19550;42.872;25.494;2022-08-01T06:48:14;4.40;;;2.42;;
33184;SDS011;19550;42.872;25.494;2022-08-01T06:50:41;9.23;;;2.63;;
33184;SDS011;19550;42.872;25.494;2022-08-01T06:53:08;5.22;;;2.28;;
33184;SDS011;19550;42.872;25.494;2022-08-01T06:55:35;6.80;;;2.30;;
33184;SDS011;19550;42.872;25.494;2022-08-01T06:58:03;5.07;;;2.00;;
33184;SDS011;19550;42.872;25.494;2022-08-01T07:00:30;4.00;;;2.08;;
33184;SDS011;19550;42.872;25.494;2022-08-01T07:02:57;4.65;;;2.30;;
33184;SDS011;19550;42.872;25.494;2022-08-01T07:05:26;4.30;;;2.20;;
33184;SDS011;19550;42.872;25.494;2022-08-01T07:07:56;5.47;;;2.35;;
33184;SDS011;19550;42.872;25.494;2022-08-01T07:10:23;6.82;;;2.70;;
33184;SDS011;19550;42.872;25.494;2022-08-01T07:12:49;4.07;;;2.70;;
33184;SDS011;19550;42.872;25.494;2022-08-01T07:15:16;5.80;;;2.30;;
33184;SDS011;19550;42.872;25.494;2022-08-01T07:17:45;10.05;;;2.20;;
33184;SDS011;19550;42.872;25.494;2022-08-01T07:20:12;3.35;;;2.30;;
33184;SDS011;19550;42.872;25.494;2022-08-01T07:22:41;6.20;;;2.47;;
33184;SDS011;19550;42.872;25.494;2022-08-01T07:25:08;3.53;;;2.38;;
33184;SDS011;19550;42.872;25.494;2022-08-01T07:27:35;6.13;;;2.38;;
33184;SDS011;19550;42.872;25.494;2022-08-01T07:30:03;8.40;;;2.38;;
33184;SDS011;19550;42.872;25.494;2022-08-01T07:32:31;7.25;;;2.75;;
33184;SDS011;19550;42.872;25.494;2022-08-01T07:34:59;2.72;;;2.30;;
33184;SDS011;19550;42.872;25.494;2022-08-01T07:37:27;4.32;;;2.50;;
33184;SDS011;19550;42.872;25.494;2022-08-01T07:39:55;4.45;;;2.33;;
33184;SDS011;19550;42.872;25.494;2022-08-01T07:42:22;4.95;;;2.50;;
33184;SDS011;19550;42.872;25.494;2022-08-01T07:44:49;4.70;;;2.38;;
33184;SDS011;19550;42.872;25.494;2022-08-01T07:47:22;6.50;;;2.33;;
33184;SDS011;19550;42.872;25.494;2022-08-01T07:49:50;6.07;;;1.98;;
33184;SDS011;19550;42.872;25.494;2022-08-01T07:52:17;5.78;;;2.47;;
33184;SDS011;19550;42.872;25.494;2022-08-01T07:54:44;7.18;;;2.30;;
33184;SDS011;19550;42.872;25.494;2022-08-01T07:57:13;3.53;;;2.63;;
33184;SDS011;19550;42.872;25.494;2022-08-01T07:59:41;4.47;;;2.40;;
33184;SDS011;19550;42.872;25.494;2022-08-01T08:02:08;4.90;;;2.20;;
33184;SDS011;19550;42.872;25.494;2022-08-01T08:04:35;3.45;;;2.03;;
33184;SDS011;19550;42.872;25.494;2022-08-01T08:07:02;4.65;;;2.60;;
33184;SDS011;19550;42.872;25.494;2022-08-01T08:09:29;7.40;;;2.40;;
33184;SDS011;19550;42.872;25.494;2022-08-01T08:11:56;2.85;;;2.17;;
33184;SDS011;19550;42.872;25.494;2022-08-01T08:14:25;5.70;;;2.15;;
33184;SDS011;19550;42.872;25.494;2022-08-01T08:16:52;4.38;;;2.20;;
33184;SDS011;19550;42.872;25.494;2022-08-01T08:19:19;10.77;;;2.40;;
33184;SDS011;19550;42.872;25.494;2022-08-01T08:21:46;6.47;;;2.08;;
33184;SDS011;19550;42.872;25.494;2022-08-01T08:24:13;3.47;;;1.90;;
33184;SDS011;19550;42.872;25.494;2022-08-01T08:26:46;7.00;;;2.35;;
33184;SDS011;19550;42.872;25.494;2022-08-01T08:29:14;2.10;;;1.90;;
33184;SDS011;19550;42.872;25.494;2022-08-01T08:31:42;3.88;;;2.10;;
33184;SDS011;19550;42.872;25.494;2022-08-01T08:34:09;2.63;;;1.95;;
33184;SDS011;19550;42.872;25.494;2022-08-01T08:36:36;4.43;;;1.90;;
33184;SDS011;19550;42.872;25.494;2022-08-01T08:39:04;3.90;;;1.83;;
33184;SDS011;19550;42.872;25.494;2022-08-01T08:41:32;2.58;;;1.67;;
33184;SDS011;19550;42.872;25.494;2022-08-01T08:44:00;4.60;;;1.90;;
33184;SDS011;19550;42.872;25.494;2022-08-01T08:46:27;4.00;;;1.70;;
33184;SDS011;19550;42.872;25.494;2022-08-01T08:48:59;8.68;;;2.15;;
33184;SDS011;19550;42.872;25.494;2022-08-01T08:51:27;4.55;;;1.80;;
33184;SDS011;19550;42.872;25.494;2022-08-01T08:53:57;2.90;;;1.95;;
33184;SDS011;19550;42.872;25.494;2022-08-01T08:56:25;2.58;;;1.77;;
33184;SDS011;19550;42.872;25.494;2022-08-01T08:58:55;2.53;;;1.75;;
33184;SDS011;19550;42.872;25.494;2022-08-01T09:01:23;3.42;;;2.00;;
33184;SDS011;19550;42.872;25.494;2022-08-01T09:03:50;3.47;;;2.25;;
33184;SDS011;19550;42.872;25.494;2022-08-01T09:06:18;3.38;;;1.80;;
33184;SDS011;19550;42.872;25.494;2022-08-01T09:08:46;5.13;;;2.07;;
33184;SDS011;19550;42.872;25.494;2022-08-01T09:11:13;2.00;;;1.80;;
33184;SDS011;19550;42.872;25.494;2022-08-01T09:13:40;6.65;;;2.20;;
33184;SDS011;19550;42.872;25.494;2022-08-01T09:16:07;3.40;;;1.70;;
33184;SDS011;19550;42.872;25.494;2022-08-01T09:18:34;5.47;;;1.60;;
33184;SDS011;19550;42.872;25.494;2022-08-01T09:21:11;3.58;;;2.17;;
33184;SDS011;19550;42.872;25.494;2022-08-01T09:23:42;11.48;;;2.15;;
33184;SDS011;19550;42.872;25.494;2022-08-01T09:26:10;2.63;;;1.67;;
33184;SDS011;19550;42.872;25.494;2022-08-01T09:28:39;2.65;;;1.85;;
33184;SDS011;19550;42.872;25.494;2022-08-01T09:31:07;2.40;;;1.60;;
33184;SDS011;19550;42.872;25.494;2022-08-01T09:33:51;1.80;;;1.70;;
33184;SDS011;19550;42.872;25.494;2022-08-01T09:36:20;5.68;;;2.10;;
33184;SDS011;19550;42.872;25.494;2022-08-01T09:38:50;2.87;;;1.70;;
33184;SDS011;19550;42.872;25.494;2022-08-01T09:41:28;2.38;;;1.70;;
33184;SDS011;19550;42.872;25.494;2022-08-01T09:43:56;6.22;;;1.63;;
33184;SDS011;19550;42.872;25.494;2022-08-01T09:46:24;5.10;;;1.42;;
33184;SDS011;19550;42.872;25.494;2022-08-01T09:48:55;3.85;;;1.65;;
33184;SDS011;19550;42.872;25.494;2022-08-01T09:51:30;3.65;;;1.50;;
33184;SDS011;19550;42.872;25.494;2022-08-01T09:54:01;2.05;;;1.48;;
33184;SDS011;19550;42.872;25.494;2022-08-01T09:56:35;4.20;;;1.40;;
33184;SDS011;19550;42.872;25.494;2022-08-01T09:59:03;1.95;;;1.50;;
33184;SDS011;19550;42.872;25.494;2022-08-01T10:01:42;1.80;;;1.30;;
33184;SDS011;19550;42.872;25.494;2022-08-01T10:04:11;2.37;;;1.50;;
33184;SDS011;19550;42.872;25.494;2022-08-01T10:06:40;1.75;;;1.50;;
33184;SDS011;19550;42.872;25.494;2022-08-01T10:09:10;2.40;;;1.50;;
33184;SDS011;19550;42.872;25.494;2022-08-01T10:14:07;2.53;;;1.77;;
33184;SDS011;19550;42.872;25.494;2022-08-01T10:16:38;6.38;;;1.55;;
33184;SDS011;19550;42.872;25.494;2022-08-01T10:19:06;1.20;;;1.10;;
33184;SDS011;19550;42.872;25.494;2022-08-01T10:21:33;3.05;;;1.30;;
33184;SDS011;19550;42.872;25.494;2022-08-01T10:24:04;2.03;;;1.20;;
33184;SDS011;19550;42.872;25.494;2022-08-01T10:26:35;2.03;;;1.25;;
33184;SDS011;19550;42.872;25.494;2022-08-01T10:29:05;1.90;;;1.20;;
33184;SDS011;19550;42.872;25.494;2022-08-01T10:31:32;3.05;;;1.38;;
33184;SDS011;19550;42.872;25.494;2022-08-01T10:33:59;2.03;;;1.20;;
33184;SDS011;19550;42.872;25.494;2022-08-01T10:36:28;2.00;;;1.00;;
33184;SDS011;19550;42.872;25.494;2022-08-01T10:38:56;6.70;;;1.30;;
33184;SDS011;19550;42.872;25.494;2022-08-01T10:41:24;1.35;;;1.25;;
33184;SDS011;19550;42.872;25.494;2022-08-01T10:43:53;3.13;;;1.23;;
33184;SDS011;19550;42.872;25.494;2022-08-01T10:46:22;1.85;;;1.02;;
33184;SDS011;19550;42.872;25.494;2022-08-01T10:48:49;5.28;;;1.50;;
33184;SDS011;19550;42.872;25.494;2022-08-01T10:51:22;3.08;;;1.35;;
33184;SDS011;19550;42.872;25.494;2022-08-01T10:53:51;2.60;;;1.27;;
33184;SDS011;19550;42.872;25.494;2022-08-01T10:56:19;1.20;;;1.10;;
33184;SDS011;19550;42.872;25.494;2022-08-01T10:58:47;1.20;;;1.10;;
33184;SDS011;19550;42.872;25.494;2022-08-01T11:01:17;1.40;;;1.10;;
33184;SDS011;19550;42.872;25.494;2022-08-01T11:09:30;1.83;;;1.15;;
33184;SDS011;19550;42.872;25.494;2022-08-01T11:12:05;1.83;;;1.08;;
33184;SDS011;19550;42.872;25.494;2022-08-01T11:18:00;1.65;;;0.90;;
33184;SDS011;19550;42.872;25.494;2022-08-01T11:20:29;1.08;;;0.98;;
33184;SDS011;19550;42.872;25.494;2022-08-01T11:28:46;5.35;;;1.05;;
33184;SDS011;19550;42.872;25.494;2022-08-01T11:31:44;3.47;;;1.00;;
33184;SDS011;19550;42.872;25.494;2022-08-01T11:34:12;4.13;;;1.05;;
33184;SDS011;19550;42.872;25.494;2022-08-01T11:36:39;2.75;;;1.42;;
33184;SDS011;19550;42.872;25.494;2022-08-01T11:39:13;4.50;;;1.13;;
33184;SDS011;19550;42.872;25.494;2022-08-01T11:41:43;2.47;;;0.80;;
33184;SDS011;19550;42.872;25.494;2022-08-01T11:44:11;1.23;;;0.98;;
33184;SDS011;19550;42.872;25.494;2022-08-01T11:46:51;2.40;;;1.00;;
33184;SDS011;19550;42.872;25.494;2022-08-01T11:49:26;4.57;;;1.10;;
33184;SDS011;19550;42.872;25.494;2022-08-01T11:52:00;3.80;;;0.90;;
33184;SDS011;19550;42.872;25.494;2022-08-01T11:54:28;3.57;;;1.20;;
33184;SDS011;19550;42.872;25.494;2022-08-01T11:56:57;3.17;;;1.08;;
33184;SDS011;19550;42.872;25.494;2022-08-01T11:59:26;3.30;;;1.30;;
33184;SDS011;19550;42.872;25.494;2022-08-01T12:01:54;2.45;;;1.08;;
33184;SDS011;19550;42.872;25.494;2022-08-01T12:04:21;3.35;;;1.15;;
33184;SDS011;19550;42.872;25.494;2022-08-01T12:06:50;1.83;;;1.15;;
33184;SDS011;19550;42.872;25.494;2022-08-01T12:09:17;1.02;;;1.00;;
33184;SDS011;19550;42.872;25.494;2022-08-01T12:11:45;3.83;;;1.27;;
33184;SDS011;19550;42.872;25.494;2022-08-01T12:14:16;2.50;;;1.48;;
33184;SDS011;19550;42.872;25.494;2022-08-01T12:16:51;4.72;;;1.45;;
33184;SDS011;19550;42.872;25.494;2022-08-01T12:19:19;1.17;;;1.00;;
33184;SDS011;19550;42.872;25.494;2022-08-01T12:22:11;2.40;;;1.20;;
33184;SDS011;19550;42.872;25.494;2022-08-01T12:24:39;6.35;;;1.05;;
33184;SDS011;19550;42.872;25.494;2022-08-01T12:27:08;1.43;;;1.20;;
33184;SDS011;19550;42.872;25.494;2022-08-01T12:29:38;1.88;;;1.23;;
33184;SDS011;19550;42.872;25.494;2022-08-01T12:32:26;2.55;;;1.20;;
33184;SDS011;19550;42.872;25.494;2022-08-01T12:37:28;3.63;;;1.10;;
33184;SDS011;19550;42.872;25.494;2022-08-01T12:39:55;5.60;;;1.10;;
33184;SDS011;19550;42.872;25.494;2022-08-01T12:42:23;1.42;;;1.00;;
33184;SDS011;19550;42.872;25.494;2022-08-01T12:44:51;1.73;;;1.02;;
33184;SDS011;19550;42.872;25.494;2022-08-01T12:47:19;5.28;;;1.30;;
33184;SDS011;19550;42.872;25.494;2022-08-01T12:49:48;1.50;;;1.13;;
33184;SDS011;19550;42.872;25.494;2022-08-01T12:52:15;2.00;;;1.35;;
33184;SDS011;19550;42.872;25.494;2022-08-01T12:55:08;2.47;;;1.20;;
33184;SDS011;19550;42.872;25.494;2022-08-01T12:57:40;1.70;;;1.13;;
33184;SDS011;19550;42.872;25.494;2022-08-01T13:00:10;1.52;;;1.00;;
33184;SDS011;19550;42.872;25.494;2022-08-01T13:02:40;1.55;;;0.98;;
33184;SDS011;19550;42.872;25.494;2022-08-01T13:05:07;1.48;;;1.00;;
33184;SDS011;19550;42.872;25.494;2022-08-01T13:07:40;2.33;;;1.00;;
33184;SDS011;19550;42.872;25.494;2022-08-01T13:10:11;1.00;;;0.90;;
33184;SDS011;19550;42.872;25.494;2022-08-01T13:12:39;1.25;;;0.95;;
33184;SDS011;19550;42.872;25.494;2022-08-01T13:15:19;3.58;;;1.23;;
33184;SDS011;19550;42.872;25.494;2022-08-01T13:17:49;1.15;;;0.90;;
33184;SDS011;19550;42.872;25.494;2022-08-01T13:20:27;1.15;;;1.05;;
33184;SDS011;19550;42.872;25.494;2022-08-01T13:22:55;1.10;;;0.80;;
33184;SDS011;19550;42.872;25.494;2022-08-01T13:25:47;2.78;;;1.10;;
33184;SDS011;19550;42.872;25.494;2022-08-01T13:28:19;1.10;;;1.00;;
33184;SDS011;19550;42.872;25.494;2022-08-01T13:30:53;5.37;;;1.10;;
33184;SDS011;19550;42.872;25.494;2022-08-01T13:33:22;0.93;;;0.82;;
33184;SDS011;19550;42.872;25.494;2022-08-01T13:35:50;1.25;;;1.02;;
33184;SDS011;19550;42.872;25.494;2022-08-01T13:38:18;1.13;;;1.05;;
33184;SDS011;19550;42.872;25.494;2022-08-01T13:40:46;1.55;;;1.20;;
33184;SDS011;19550;42.872;25.494;2022-08-01T13:43:13;2.28;;;0.90;;
33184;SDS011;19550;42.872;25.494;2022-08-01T13:45:40;1.10;;;1.00;;
33184;SDS011;19550;42.872;25.494;2022-08-01T13:48:08;1.13;;;0.82;;
33184;SDS011;19550;42.872;25.494;2022-08-01T13:50:35;0.95;;;0.85;;
33184;SDS011;19550;42.872;25.494;2022-08-01T13:53:02;2.50;;;1.10;;
33184;SDS011;19550;42.872;25.494;2022-08-01T13:55:29;2.90;;;1.30;;
33184;SDS011;19550;42.872;25.494;2022-08-01T13:57:57;1.77;;;1.00;;
33184;SDS011;19550;42.872;25.494;2022-08-01T14:00:24;1.00;;;1.00;;
33184;SDS011;19550;42.872;25.494;2022-08-01T14:02:51;3.10;;;1.00;;
33184;SDS011;19550;42.872;25.494;2022-08-01T14:05:19;3.90;;;1.02;;
33184;SDS011;19550;42.872;25.494;2022-08-01T14:07:45;2.65;;;1.55;;
33184;SDS011;19550;42.872;25.494;2022-08-01T14:10:12;2.58;;;1.00;;
33184;SDS011;19550;42.872;25.494;2022-08-01T14:12:39;2.17;;;1.10;;
33184;SDS011;19550;42.872;25.494;2022-08-01T14:15:08;1.52;;;1.20;;
33184;SDS011;19550;42.872;25.494;2022-08-01T14:17:36;4.07;;;1.48;;
33184;SDS011;19550;42.872;25.494;2022-08-01T14:20:03;3.08;;;1.25;;
33184;SDS011;19550;42.872;25.494;2022-08-01T14:22:31;1.50;;;1.40;;
33184;SDS011;19550;42.872;25.494;2022-08-01T14:24:58;1.60;;;1.10;;
33184;SDS011;19550;42.872;25.494;2022-08-01T14:27:25;3.10;;;1.00;;
33184;SDS011;19550;42.872;25.494;2022-08-01T14:29:55;8.75;;;1.63;;
33184;SDS011;19550;42.872;25.494;2022-08-01T14:32:23;4.93;;;1.00;;
33184;SDS011;19550;42.872;25.494;2022-08-01T14:34:50;1.15;;;1.05;;
33184;SDS011;19550;42.872;25.494;2022-08-01T14:37:17;4.43;;;1.50;;
33184;SDS011;19550;42.872;25.494;2022-08-01T14:39:44;2.88;;;1.70;;
33184;SDS011;19550;42.872;25.494;2022-08-01T14:42:11;1.33;;;1.10;;
33184;SDS011;19550;42.872;25.494;2022-08-01T14:44:38;2.03;;;1.30;;
33184;SDS011;19550;42.872;25.494;2022-08-01T14:47:05;1.38;;;1.17;;
33184;SDS011;19550;42.872;25.494;2022-08-01T14:49:34;3.13;;;1.38;;
33184;SDS011;19550;42.872;25.494;2022-08-01T14:52:01;1.33;;;1.13;;
33184;SDS011;19550;42.872;25.494;2022-08-01T14:54:28;1.45;;;1.20;;
33184;SDS011;19550;42.872;25.494;2022-08-01T14:56:55;5.95;;;1.30;;
33184;SDS011;19550;42.872;25.494;2022-08-01T14:59:22;3.53;;;1.50;;
33184;SDS011;19550;42.872;25.494;2022-08-01T15:01:49;1.60;;;1.00;;
33184;SDS011;19550;42.872;25.494;2022-08-01T15:04:16;1.02;;;0.93;;
33184;SDS011;19550;42.872;25.494;2022-08-01T15:06:44;1.83;;;1.10;;
33184;SDS011;19550;42.872;25.494;2022-08-01T15:09:11;2.08;;;1.13;;
33184;SDS011;19550;42.872;25.494;2022-08-01T15:11:38;1.83;;;1.10;;